sensor_id;sensor_type;location;lat;lon;timestamp;temperature;humidity
33825;DHT22;20127;48.962;8.342;2023-11-19T00:00:29;10.10;99.90
33825;DHT22;20127;48.962;8.342;2023-11-19T00:03:31;10.10;99.90
33825;DHT22;20127;48.962;8.342;2023-11-19T00:06:33;10.20;99.90
33825;DHT22;20127;48.962;8.342;2023-11-19T00:09:36;10.20;99.90
33825;DHT22;20127;48.962;8.342;2023-11-19T00:12:39;10.20;99.90
33825;DHT22;20127;48.962;8.342;2023-11-19T00:15:41;10.20;99.90
33825;DHT22;20127;48.962;8.342;2023-11-19T00:18:43;10.30;99.90
33825;DHT22;20127;48.962;8.342;2023-11-19T00:21:45;10.30;99.90
33825;DHT22;20127;48.962;8.342;2023-11-19T00:24:48;10.30;99.90
33825;DHT22;20127;48.962;8.342;2023-11-19T00:27:50;10.40;99.90
33825;DHT22;20127;48.962;8.342;2023-11-19T00:30:53;10.40;99.90
33825;DHT22;20127;48.962;8.342;2023-11-19T00:33:55;10.40;99.90
33825;DHT22;20127;48.962;8.342;2023-11-19T00:36:57;10.40;99.90
33825;DHT22;20127;48.962;8.342;2023-11-19T00:40:00;10.50;99.90
33825;DHT22;20127;48.962;8.342;2023-11-19T00:43:05;10.50;99.90
33825;DHT22;20127;48.962;8.342;2023-11-19T00:46:08;10.50;99.90
33825;DHT22;20127;48.962;8.342;2023-11-19T00:49:11;10.50;99.90
33825;DHT22;20127;48.962;8.342;2023-11-19T00:52:13;10.60;99.90
33825;DHT22;20127;48.962;8.342;2023-11-19T00:55:16;10.60;99.90
33825;DHT22;20127;48.962;8.342;2023-11-19T00:58:17;10.60;99.90
33825;DHT22;20127;48.962;8.342;2023-11-19T01:01:19;10.60;99.90
33825;DHT22;20127;48.962;8.342;2023-11-19T01:04:21;10.60;99.90
33825;DHT22;20127;48.962;8.342;2023-11-19T01:07:24;10.60;99.90
33825;DHT22;20127;48.962;8.342;2023-11-19T01:10:28;10.70;99.90
33825;DHT22;20127;48.962;8.342;2023-11-19T01:13:30;10.70;99.90
33825;DHT22;20127;48.962;8.342;2023-11-19T01:16:31;10.70;99.90
33825;DHT22;20127;48.962;8.342;2023-11-19T01:19:33;10.70;99.90
33825;DHT22;20127;48.962;8.342;2023-11-19T01:22:35;10.80;99.90
33825;DHT22;20127;48.962;8.342;2023-11-19T01:25:38;10.80;99.90
33825;DHT22;20127;48.962;8.342;2023-11-19T01:28:39;10.80;99.90
33825;DHT22;20127;48.962;8.342;2023-11-19T01:31:46;10.80;99.90
33825;DHT22;20127;48.962;8.342;2023-11-19T01:34:48;10.80;99.90
33825;DHT22;20127;48.962;8.342;2023-11-19T01:37:49;10.80;99.90
33825;DHT22;20127;48.962;8.342;2023-11-19T01:40:57;10.80;99.90
33825;DHT22;20127;48.962;8.342;2023-11-19T01:43:59;10.90;99.90
33825;DHT22;20127;48.962;8.342;2023-11-19T01:47:01;10.90;99.90
33825;DHT22;20127;48.962;8.342;2023-11-19T01:50:06;10.90;99.90
33825;DHT22;20127;48.962;8.342;2023-11-19T01:53:09;10.90;99.90
33825;DHT22;20127;48.962;8.342;2023-11-19T01:56:14;10.90;99.90
33825;DHT22;20127;48.962;8.342;2023-11-19T01:59:16;10.90;99.90
33825;DHT22;20127;48.962;8.342;2023-11-19T02:02:18;10.90;99.90
33825;DHT22;20127;48.962;8.342;2023-11-19T02:05:21;10.90;99.90
33825;DHT22;20127;48.962;8.342;2023-11-19T02:08:23;11.00;99.90
33825;DHT22;20127;48.962;8.342;2023-11-19T02:11:26;11.00;99.90
33825;DHT22;20127;48.962;8.342;2023-11-19T02:14:29;11.00;99.90
33825;DHT22;20127;48.962;8.342;2023-11-19T02:17:31;11.00;99.90
33825;DHT22;20127;48.962;8.342;2023-11-19T02:20:34;11.10;99.90
33825;DHT22;20127;48.962;8.342;2023-11-19T02:23:36;11.00;99.90
33825;DHT22;20127;48.962;8.342;2023-11-19T02:26:45;11.10;99.90
33825;DHT22;20127;48.962;8.342;2023-11-19T02:29:50;11.00;99.90
33825;DHT22;20127;48.962;8.342;2023-11-19T02:32:52;11.00;99.90
33825;DHT22;20127;48.962;8.342;2023-11-19T02:35:54;11.00;99.90
33825;DHT22;20127;48.962;8.342;2023-11-19T02:38:56;11.10;99.90
33825;DHT22;20127;48.962;8.342;2023-11-19T02:41:58;11.10;99.90
33825;DHT22;20127;48.962;8.342;2023-11-19T02:45:01;11.10;99.90
33825;DHT22;20127;48.962;8.342;2023-11-19T02:48:06;11.20;99.90
33825;DHT22;20127;48.962;8.342;2023-11-19T02:51:09;11.20;99.90
33825;DHT22;20127;48.962;8.342;2023-11-19T02:54:10;11.20;99.90
33825;DHT22;20127;48.962;8.342;2023-11-19T02:57:13;11.20;99.90
33825;DHT22;20127;48.962;8.342;2023-11-19T03:00:17;11.20;99.90
33825;DHT22;20127;48.962;8.342;2023-11-19T03:03:19;11.20;99.90
33825;DHT22;20127;48.962;8.342;2023-11-19T03:06:23;11.20;99.90
33825;DHT22;20127;48.962;8.342;2023-11-19T03:09:24;11.20;99.90
33825;DHT22;20127;48.962;8.342;2023-11-19T03:12:26;11.20;99.90
33825;DHT22;20127;48.962;8.342;2023-11-19T03:15:29;11.30;99.90
33825;DHT22;20127;48.962;8.342;2023-11-19T03:18:31;11.20;99.90
33825;DHT22;20127;48.962;8.342;2023-11-19T03:21:33;11.20;99.90
33825;DHT22;20127;48.962;8.342;2023-11-19T03:24:35;11.30;99.90
33825;DHT22;20127;48.962;8.342;2023-11-19T03:27:37;11.30;99.90
33825;DHT22;20127;48.962;8.342;2023-11-19T03:30:41;11.30;99.90
33825;DHT22;20127;48.962;8.342;2023-11-19T03:33:43;11.30;99.90
33825;DHT22;20127;48.962;8.342;2023-11-19T03:36:45;11.30;99.90
33825;DHT22;20127;48.962;8.342;2023-11-19T03:39:47;11.30;99.90
33825;DHT22;20127;48.962;8.342;2023-11-19T03:42:49;11.30;99.90
33825;DHT22;20127;48.962;8.342;2023-11-19T03:45:52;11.30;99.90
33825;DHT22;20127;48.962;8.342;2023-11-19T03:48:53;11.40;99.90
33825;DHT22;20127;48.962;8.342;2023-11-19T03:51:55;11.30;99.90
33825;DHT22;20127;48.962;8.342;2023-11-19T03:54:57;11.40;99.90
33825;DHT22;20127;48.962;8.342;2023-11-19T03:57:59;11.40;99.90
33825;DHT22;20127;48.962;8.342;2023-11-19T04:01:02;11.40;99.90
33825;DHT22;20127;48.962;8.342;2023-11-19T04:04:04;11.40;99.90
33825;DHT22;20127;48.962;8.342;2023-11-19T04:07:06;11.40;99.90
33825;DHT22;20127;48.962;8.342;2023-11-19T04:10:08;11.40;99.90
33825;DHT22;20127;48.962;8.342;2023-11-19T04:13:10;11.40;99.90
33825;DHT22;20127;48.962;8.342;2023-11-19T04:16:14;11.50;99.90
33825;DHT22;20127;48.962;8.342;2023-11-19T04:19:16;11.50;99.90
33825;DHT22;20127;48.962;8.342;2023-11-19T04:22:17;11.50;99.90
33825;DHT22;20127;48.962;8.342;2023-11-19T04:25:19;11.50;99.90
33825;DHT22;20127;48.962;8.342;2023-11-19T04:28:21;11.50;99.90
33825;DHT22;20127;48.962;8.342;2023-11-19T04:31:28;11.50;99.90
33825;DHT22;20127;48.962;8.342;2023-11-19T04:34:31;11.50;99.90
33825;DHT22;20127;48.962;8.342;2023-11-19T04:37:33;11.60;99.90
33825;DHT22;20127;48.962;8.342;2023-11-19T04:40:35;11.60;99.90
33825;DHT22;20127;48.962;8.342;2023-11-19T04:43:36;11.60;99.90
33825;DHT22;20127;48.962;8.342;2023-11-19T04:46:39;11.60;99.90
33825;DHT22;20127;48.962;8.342;2023-11-19T04:49:41;11.70;99.90
33825;DHT22;20127;48.962;8.342;2023-11-19T04:52:44;11.70;99.90
33825;DHT22;20127;48.962;8.342;2023-11-19T04:55:46;11.80;99.90
33825;DHT22;20127;48.962;8.342;2023-11-19T04:58:48;11.80;99.90
33825;DHT22;20127;48.962;8.342;2023-11-19T05:01:51;11.80;99.90
33825;DHT22;20127;48.962;8.342;2023-11-19T05:04:53;11.90;99.90
33825;DHT22;20127;48.962;8.342;2023-11-19T05:07:54;11.90;99.90
33825;DHT22;20127;48.962;8.342;2023-11-19T05:10:56;11.90;99.90
33825;DHT22;20127;48.962;8.342;2023-11-19T05:14:00;12.00;99.90
33825;DHT22;20127;48.962;8.342;2023-11-19T05:17:03;12.00;99.90
33825;DHT22;20127;48.962;8.342;2023-11-19T05:20:05;12.00;99.90
33825;DHT22;20127;48.962;8.342;2023-11-19T05:23:13;12.10;99.90
33825;DHT22;20127;48.962;8.342;2023-11-19T05:26:18;12.10;99.90
33825;DHT22;20127;48.962;8.342;2023-11-19T05:29:21;12.10;99.90
33825;DHT22;20127;48.962;8.342;2023-11-19T05:32:24;12.20;99.90
33825;DHT22;20127;48.962;8.342;2023-11-19T05:35:25;12.20;99.90
33825;DHT22;20127;48.962;8.342;2023-11-19T05:38:27;12.20;99.90
33825;DHT22;20127;48.962;8.342;2023-11-19T05:41:29;12.20;99.90
33825;DHT22;20127;48.962;8.342;2023-11-19T05:44:31;12.30;99.90
33825;DHT22;20127;48.962;8.342;2023-11-19T05:47:34;12.30;99.90
33825;DHT22;20127;48.962;8.342;2023-11-19T05:50:35;12.30;99.90
33825;DHT22;20127;48.962;8.342;2023-11-19T05:53:37;12.40;99.90
33825;DHT22;20127;48.962;8.342;2023-11-19T05:56:39;12.40;99.90
33825;DHT22;20127;48.962;8.342;2023-11-19T05:59:41;12.40;99.90
33825;DHT22;20127;48.962;8.342;2023-11-19T06:02:45;12.40;99.90
33825;DHT22;20127;48.962;8.342;2023-11-19T06:05:47;12.50;99.90
33825;DHT22;20127;48.962;8.342;2023-11-19T06:08:49;12.50;99.90
33825;DHT22;20127;48.962;8.342;2023-11-19T06:11:51;12.50;99.90
33825;DHT22;20127;48.962;8.342;2023-11-19T06:14:52;12.50;99.90
33825;DHT22;20127;48.962;8.342;2023-11-19T06:17:56;12.50;99.90
33825;DHT22;20127;48.962;8.342;2023-11-19T06:20:59;12.50;99.90
33825;DHT22;20127;48.962;8.342;2023-11-19T06:24:01;12.50;99.90
33825;DHT22;20127;48.962;8.342;2023-11-19T06:27:04;12.50;99.90
33825;DHT22;20127;48.962;8.342;2023-11-19T06:30:06;12.50;99.90
33825;DHT22;20127;48.962;8.342;2023-11-19T06:33:12;12.50;99.90
33825;DHT22;20127;48.962;8.342;2023-11-19T06:36:14;12.50;99.90
33825;DHT22;20127;48.962;8.342;2023-11-19T06:39:17;12.60;99.90
33825;DHT22;20127;48.962;8.342;2023-11-19T06:42:20;12.60;99.90
33825;DHT22;20127;48.962;8.342;2023-11-19T06:45:22;12.60;99.90
33825;DHT22;20127;48.962;8.342;2023-11-19T06:48:25;12.60;99.90
33825;DHT22;20127;48.962;8.342;2023-11-19T06:51:26;12.70;99.90
33825;DHT22;20127;48.962;8.342;2023-11-19T06:54:28;12.70;99.90
33825;DHT22;20127;48.962;8.342;2023-11-19T06:57:30;12.70;99.90
33825;DHT22;20127;48.962;8.342;2023-11-19T07:00:32;12.70;99.90
33825;DHT22;20127;48.962;8.342;2023-11-19T07:03:37;12.80;99.90
33825;DHT22;20127;48.962;8.342;2023-11-19T07:06:39;12.80;99.90
33825;DHT22;20127;48.962;8.342;2023-11-19T07:09:41;12.90;99.90
33825;DHT22;20127;48.962;8.342;2023-11-19T07:12:43;12.90;99.90
33825;DHT22;20127;48.962;8.342;2023-11-19T07:15:45;12.90;99.90
33825;DHT22;20127;48.962;8.342;2023-11-19T07:18:48;12.90;99.90
33825;DHT22;20127;48.962;8.342;2023-11-19T07:21:50;12.90;99.90
33825;DHT22;20127;48.962;8.342;2023-11-19T07:24:54;12.90;99.90
33825;DHT22;20127;48.962;8.342;2023-11-19T07:27:56;12.90;99.90
33825;DHT22;20127;48.962;8.342;2023-11-19T07:30:58;12.90;99.90
33825;DHT22;20127;48.962;8.342;2023-11-19T07:34:01;12.90;99.90
33825;DHT22;20127;48.962;8.342;2023-11-19T07:37:03;12.90;99.90
33825;DHT22;20127;48.962;8.342;2023-11-19T07:40:06;12.90;99.90
33825;DHT22;20127;48.962;8.342;2023-11-19T07:43:08;13.00;99.90
33825;DHT22;20127;48.962;8.342;2023-11-19T07:46:11;13.00;99.90
33825;DHT22;20127;48.962;8.342;2023-11-19T07:49:15;13.00;99.90
33825;DHT22;20127;48.962;8.342;2023-11-19T07:52:17;13.00;99.90
33825;DHT22;20127;48.962;8.342;2023-11-19T07:55:18;13.10;99.90
33825;DHT22;20127;48.962;8.342;2023-11-19T07:58:21;13.10;99.90
33825;DHT22;20127;48.962;8.342;2023-11-19T08:01:23;13.20;99.90
33825;DHT22;20127;48.962;8.342;2023-11-19T08:04:26;13.20;99.90
33825;DHT22;20127;48.962;8.342;2023-11-19T08:07:28;13.10;99.90
33825;DHT22;20127;48.962;8.342;2023-11-19T08:10:29;13.10;99.90
33825;DHT22;20127;48.962;8.342;2023-11-19T08:13:33;13.10;99.90
33825;DHT22;20127;48.962;8.342;2023-11-19T08:16:35;13.10;99.90
33825;DHT22;20127;48.962;8.342;2023-11-19T08:19:39;13.10;99.90
33825;DHT22;20127;48.962;8.342;2023-11-19T08:22:41;13.20;99.90
33825;DHT22;20127;48.962;8.342;2023-11-19T08:25:42;13.20;99.90
33825;DHT22;20127;48.962;8.342;2023-11-19T08:28:44;13.20;99.90
33825;DHT22;20127;48.962;8.342;2023-11-19T08:31:46;13.20;99.90
33825;DHT22;20127;48.962;8.342;2023-11-19T08:34:49;13.30;99.90
33825;DHT22;20127;48.962;8.342;2023-11-19T08:37:51;13.30;99.90
33825;DHT22;20127;48.962;8.342;2023-11-19T08:40:53;13.40;99.90
33825;DHT22;20127;48.962;8.342;2023-11-19T08:43:59;13.40;99.90
33825;DHT22;20127;48.962;8.342;2023-11-19T08:47:02;13.50;99.90
33825;DHT22;20127;48.962;8.342;2023-11-19T08:50:06;13.60;99.90
33825;DHT22;20127;48.962;8.342;2023-11-19T08:53:08;13.50;99.90
33825;DHT22;20127;48.962;8.342;2023-11-19T08:56:10;13.50;99.90
33825;DHT22;20127;48.962;8.342;2023-11-19T08:59:12;13.40;99.90
33825;DHT22;20127;48.962;8.342;2023-11-19T09:02:15;13.40;99.90
33825;DHT22;20127;48.962;8.342;2023-11-19T09:05:20;13.30;99.90
33825;DHT22;20127;48.962;8.342;2023-11-19T09:08:21;13.30;99.90
33825;DHT22;20127;48.962;8.342;2023-11-19T09:11:23;13.30;99.90
33825;DHT22;20127;48.962;8.342;2023-11-19T09:14:25;13.30;99.90
33825;DHT22;20127;48.962;8.342;2023-11-19T09:17:27;13.30;99.90
33825;DHT22;20127;48.962;8.342;2023-11-19T09:20:30;13.30;99.90
33825;DHT22;20127;48.962;8.342;2023-11-19T09:23:38;13.30;99.90
33825;DHT22;20127;48.962;8.342;2023-11-19T09:26:39;13.30;99.90
33825;DHT22;20127;48.962;8.342;2023-11-19T09:29:42;13.30;99.90
33825;DHT22;20127;48.962;8.342;2023-11-19T09:32:44;13.30;99.90
33825;DHT22;20127;48.962;8.342;2023-11-19T09:35:47;13.40;99.90
33825;DHT22;20127;48.962;8.342;2023-11-19T09:38:50;13.50;99.90
33825;DHT22;20127;48.962;8.342;2023-11-19T09:41:52;13.80;99.90
33825;DHT22;20127;48.962;8.342;2023-11-19T09:44:55;13.90;99.90
33825;DHT22;20127;48.962;8.342;2023-11-19T09:48:00;14.10;99.90
33825;DHT22;20127;48.962;8.342;2023-11-19T09:51:04;14.30;99.90
33825;DHT22;20127;48.962;8.342;2023-11-19T09:54:06;14.50;99.90
33825;DHT22;20127;48.962;8.342;2023-11-19T09:57:08;14.60;99.90
33825;DHT22;20127;48.962;8.342;2023-11-19T10:00:13;14.60;99.90
33825;DHT22;20127;48.962;8.342;2023-11-19T10:03:17;14.70;99.90
33825;DHT22;20127;48.962;8.342;2023-11-19T10:06:20;14.70;99.90
33825;DHT22;20127;48.962;8.342;2023-11-19T10:09:22;14.70;99.90
33825;DHT22;20127;48.962;8.342;2023-11-19T10:12:23;14.80;99.90
33825;DHT22;20127;48.962;8.342;2023-11-19T10:15:25;15.10;99.90
33825;DHT22;20127;48.962;8.342;2023-11-19T10:18:27;15.40;99.90
33825;DHT22;20127;48.962;8.342;2023-11-19T10:21:32;15.40;99.90
33825;DHT22;20127;48.962;8.342;2023-11-19T10:24:34;15.40;99.90
33825;DHT22;20127;48.962;8.342;2023-11-19T10:27:38;15.70;99.90
33825;DHT22;20127;48.962;8.342;2023-11-19T10:30:41;16.00;99.90
33825;DHT22;20127;48.962;8.342;2023-11-19T10:33:43;16.30;99.90
33825;DHT22;20127;48.962;8.342;2023-11-19T10:36:46;16.50;99.90
33825;DHT22;20127;48.962;8.342;2023-11-19T10:39:52;16.60;99.90
33825;DHT22;20127;48.962;8.342;2023-11-19T10:43:02;16.50;99.90
33825;DHT22;20127;48.962;8.342;2023-11-19T10:46:11;16.60;99.90
33825;DHT22;20127;48.962;8.342;2023-11-19T10:49:13;16.60;99.90
33825;DHT22;20127;48.962;8.342;2023-11-19T10:52:18;16.50;99.90
33825;DHT22;20127;48.962;8.342;2023-11-19T10:55:23;16.30;99.90
33825;DHT22;20127;48.962;8.342;2023-11-19T10:58:28;16.10;99.90
33825;DHT22;20127;48.962;8.342;2023-11-19T11:01:38;16.00;99.90
33825;DHT22;20127;48.962;8.342;2023-11-19T11:04:42;16.10;99.90
33825;DHT22;20127;48.962;8.342;2023-11-19T11:07:45;16.10;99.90
33825;DHT22;20127;48.962;8.342;2023-11-19T11:10:52;16.10;99.90
33825;DHT22;20127;48.962;8.342;2023-11-19T11:13:55;16.10;99.90
33825;DHT22;20127;48.962;8.342;2023-11-19T11:16:59;16.20;99.90
33825;DHT22;20127;48.962;8.342;2023-11-19T11:24:20;16.80;99.90
33825;DHT22;20127;48.962;8.342;2023-11-19T11:27:49;17.20;99.90
33825;DHT22;20127;48.962;8.342;2023-11-19T11:31:20;17.10;99.90
33825;DHT22;20127;48.962;8.342;2023-11-19T11:34:48;16.80;99.90
33825;DHT22;20127;48.962;8.342;2023-11-19T11:38:03;16.70;99.90
33825;DHT22;20127;48.962;8.342;2023-11-19T11:41:17;16.70;99.90
33825;DHT22;20127;48.962;8.342;2023-11-19T11:44:58;17.00;99.90
33825;DHT22;20127;48.962;8.342;2023-11-19T11:48:15;17.30;99.90
33825;DHT22;20127;48.962;8.342;2023-11-19T11:51:58;17.60;99.90
33825;DHT22;20127;48.962;8.342;2023-11-19T11:55:07;17.60;99.90
33825;DHT22;20127;48.962;8.342;2023-11-19T11:58:11;17.50;99.90
33825;DHT22;20127;48.962;8.342;2023-11-19T12:01:15;17.40;99.90
33825;DHT22;20127;48.962;8.342;2023-11-19T12:04:21;17.30;99.90
33825;DHT22;20127;48.962;8.342;2023-11-19T12:07:23;17.10;99.90
33825;DHT22;20127;48.962;8.342;2023-11-19T12:10:26;16.80;99.90
33825;DHT22;20127;48.962;8.342;2023-11-19T12:13:53;16.60;99.90
33825;DHT22;20127;48.962;8.342;2023-11-19T12:17:03;16.80;99.90
33825;DHT22;20127;48.962;8.342;2023-11-19T12:20:06;17.20;99.90
33825;DHT22;20127;48.962;8.342;2023-11-19T12:23:09;17.60;99.90
33825;DHT22;20127;48.962;8.342;2023-11-19T12:26:21;18.00;99.90
33825;DHT22;20127;48.962;8.342;2023-11-19T12:29:42;18.40;99.90
33825;DHT22;20127;48.962;8.342;2023-11-19T12:32:45;18.50;99.90
33825;DHT22;20127;48.962;8.342;2023-11-19T12:35:48;18.40;99.90
33825;DHT22;20127;48.962;8.342;2023-11-19T12:38:50;18.40;99.90
33825;DHT22;20127;48.962;8.342;2023-11-19T12:41:52;18.20;99.90
33825;DHT22;20127;48.962;8.342;2023-11-19T12:44:56;18.10;99.90
33825;DHT22;20127;48.962;8.342;2023-11-19T12:48:05;17.90;99.90
33825;DHT22;20127;48.962;8.342;2023-11-19T12:51:06;17.70;99.90
33825;DHT22;20127;48.962;8.342;2023-11-19T12:54:08;17.50;99.90
33825;DHT22;20127;48.962;8.342;2023-11-19T12:57:10;17.40;99.90
33825;DHT22;20127;48.962;8.342;2023-11-19T13:00:21;17.40;99.90
33825;DHT22;20127;48.962;8.342;2023-11-19T13:03:29;17.40;99.90
33825;DHT22;20127;48.962;8.342;2023-11-19T13:06:31;17.50;99.90
33825;DHT22;20127;48.962;8.342;2023-11-19T13:09:33;17.80;99.90
33825;DHT22;20127;48.962;8.342;2023-11-19T13:12:35;18.00;99.90
33825;DHT22;20127;48.962;8.342;2023-11-19T13:15:38;17.90;99.90
33825;DHT22;20127;48.962;8.342;2023-11-19T13:18:40;18.10;99.90
33825;DHT22;20127;48.962;8.342;2023-11-19T13:21:42;18.20;99.90
33825;DHT22;20127;48.962;8.342;2023-11-19T13:24:46;18.30;99.90
33825;DHT22;20127;48.962;8.342;2023-11-19T13:27:48;18.30;99.90
33825;DHT22;20127;48.962;8.342;2023-11-19T13:30:52;18.40;99.90
33825;DHT22;20127;48.962;8.342;2023-11-19T13:33:53;18.50;99.90
33825;DHT22;20127;48.962;8.342;2023-11-19T13:36:55;18.60;99.90
33825;DHT22;20127;48.962;8.342;2023-11-19T13:39:57;18.60;99.90
33825;DHT22;20127;48.962;8.342;2023-11-19T13:42:59;18.50;99.90
33825;DHT22;20127;48.962;8.342;2023-11-19T13:46:02;18.50;99.90
33825;DHT22;20127;48.962;8.342;2023-11-19T13:49:04;18.40;99.90
33825;DHT22;20127;48.962;8.342;2023-11-19T13:52:06;18.10;99.90
33825;DHT22;20127;48.962;8.342;2023-11-19T13:59:13;17.40;99.90
33825;DHT22;20127;48.962;8.342;2023-11-19T14:02:17;17.00;99.90
33825;DHT22;20127;48.962;8.342;2023-11-19T14:05:18;16.70;99.90
33825;DHT22;20127;48.962;8.342;2023-11-19T14:08:20;16.50;99.90
33825;DHT22;20127;48.962;8.342;2023-11-19T14:11:22;16.40;99.90
33825;DHT22;20127;48.962;8.342;2023-11-19T14:14:23;16.30;99.90
33825;DHT22;20127;48.962;8.342;2023-11-19T14:17:26;16.30;99.90
33825;DHT22;20127;48.962;8.342;2023-11-19T14:20:28;16.30;99.90
33825;DHT22;20127;48.962;8.342;2023-11-19T14:23:30;16.30;99.90
33825;DHT22;20127;48.962;8.342;2023-11-19T14:26:47;16.40;99.90
33825;DHT22;20127;48.962;8.342;2023-11-19T14:49:48;16.90;99.90
33825;DHT22;20127;48.962;8.342;2023-11-19T15:13:00;15.70;99.90
33825;DHT22;20127;48.962;8.342;2023-11-19T15:23:57;15.30;99.90
33825;DHT22;20127;48.962;8.342;2023-11-19T15:38:39;14.70;99.90
33825;DHT22;20127;48.962;8.342;2023-11-19T15:41:41;14.60;99.90
33825;DHT22;20127;48.962;8.342;2023-11-19T15:44:43;14.50;99.90
33825;DHT22;20127;48.962;8.342;2023-11-19T15:47:45;14.50;99.90
33825;DHT22;20127;48.962;8.342;2023-11-19T15:50:47;14.50;99.90
33825;DHT22;20127;48.962;8.342;2023-11-19T15:53:50;14.50;99.90
33825;DHT22;20127;48.962;8.342;2023-11-19T15:56:52;14.40;99.90
33825;DHT22;20127;48.962;8.342;2023-11-19T15:59:54;14.40;99.90
33825;DHT22;20127;48.962;8.342;2023-11-19T16:02:55;14.40;99.90
33825;DHT22;20127;48.962;8.342;2023-11-19T16:09:44;14.40;99.90
33825;DHT22;20127;48.962;8.342;2023-11-19T16:12:47;14.30;99.90
33825;DHT22;20127;48.962;8.342;2023-11-19T16:15:49;14.30;99.90
33825;DHT22;20127;48.962;8.342;2023-11-19T16:18:50;14.40;99.90
33825;DHT22;20127;48.962;8.342;2023-11-19T16:21:52;14.40;99.90
33825;DHT22;20127;48.962;8.342;2023-11-19T16:24:55;14.40;99.90
33825;DHT22;20127;48.962;8.342;2023-11-19T16:27:57;14.50;99.90
33825;DHT22;20127;48.962;8.342;2023-11-19T16:30:59;14.50;99.90
33825;DHT22;20127;48.962;8.342;2023-11-19T16:34:00;14.50;99.90
33825;DHT22;20127;48.962;8.342;2023-11-19T16:37:02;14.40;99.90
33825;DHT22;20127;48.962;8.342;2023-11-19T16:40:09;14.30;99.90
33825;DHT22;20127;48.962;8.342;2023-11-19T16:43:12;14.20;99.90
33825;DHT22;20127;48.962;8.342;2023-11-19T16:46:13;14.20;99.90
33825;DHT22;20127;48.962;8.342;2023-11-19T16:49:15;14.10;99.90
33825;DHT22;20127;48.962;8.342;2023-11-19T16:52:17;14.20;99.90
33825;DHT22;20127;48.962;8.342;2023-11-19T16:55:20;14.20;99.90
33825;DHT22;20127;48.962;8.342;2023-11-19T16:58:22;14.30;99.90
33825;DHT22;20127;48.962;8.342;2023-11-19T17:01:24;14.40;99.90
33825;DHT22;20127;48.962;8.342;2023-11-19T17:04:26;14.40;99.90
33825;DHT22;20127;48.962;8.342;2023-11-19T17:07:28;14.40;99.90
33825;DHT22;20127;48.962;8.342;2023-11-19T17:10:32;14.40;99.90
33825;DHT22;20127;48.962;8.342;2023-11-19T17:13:34;14.40;99.90
33825;DHT22;20127;48.962;8.342;2023-11-19T17:16:35;14.40;99.90
33825;DHT22;20127;48.962;8.342;2023-11-19T17:19:39;14.40;99.90
33825;DHT22;20127;48.962;8.342;2023-11-19T17:22:42;14.40;99.90
33825;DHT22;20127;48.962;8.342;2023-11-19T17:25:45;14.40;99.90
33825;DHT22;20127;48.962;8.342;2023-11-19T17:28:48;14.40;99.90
33825;DHT22;20127;48.962;8.342;2023-11-19T17:31:49;14.30;99.90
33825;DHT22;20127;48.962;8.342;2023-11-19T17:34:51;14.30;99.90
33825;DHT22;20127;48.962;8.342;2023-11-19T17:37:53;14.40;99.90
33825;DHT22;20127;48.962;8.342;2023-11-19T17:40:56;14.40;99.90
33825;DHT22;20127;48.962;8.342;2023-11-19T17:43:58;14.40;99.90
33825;DHT22;20127;48.962;8.342;2023-11-19T17:47:00;14.30;99.90
33825;DHT22;20127;48.962;8.342;2023-11-19T17:50:01;14.20;99.90
33825;DHT22;20127;48.962;8.342;2023-11-19T17:53:05;14.20;99.90
33825;DHT22;20127;48.962;8.342;2023-11-19T17:56:18;14.20;99.90
33825;DHT22;20127;48.962;8.342;2023-11-19T18:11:10;13.90;99.90
33825;DHT22;20127;48.962;8.342;2023-11-19T18:14:14;13.80;99.90
33825;DHT22;20127;48.962;8.342;2023-11-19T18:29:19;13.60;99.90
33825;DHT22;20127;48.962;8.342;2023-11-19T18:32:58;13.60;99.90
33825;DHT22;20127;48.962;8.342;2023-11-19T18:40:26;13.60;99.90
33825;DHT22;20127;48.962;8.342;2023-11-19T18:43:27;13.60;99.90
33825;DHT22;20127;48.962;8.342;2023-11-19T18:46:31;13.60;99.90
33825;DHT22;20127;48.962;8.342;2023-11-19T18:49:32;13.50;99.90
33825;DHT22;20127;48.962;8.342;2023-11-19T18:52:34;13.50;99.90
33825;DHT22;20127;48.962;8.342;2023-11-19T18:55:36;13.50;99.90
33825;DHT22;20127;48.962;8.342;2023-11-19T18:58:37;13.60;99.90
33825;DHT22;20127;48.962;8.342;2023-11-19T19:01:41;13.60;99.90
33825;DHT22;20127;48.962;8.342;2023-11-19T19:04:44;13.60;99.90
33825;DHT22;20127;48.962;8.342;2023-11-19T19:07:46;13.60;99.90
33825;DHT22;20127;48.962;8.342;2023-11-19T19:10:48;13.60;99.90
33825;DHT22;20127;48.962;8.342;2023-11-19T19:13:50;13.60;99.90
33825;DHT22;20127;48.962;8.342;2023-11-19T19:16:53;13.50;99.90
33825;DHT22;20127;48.962;8.342;2023-11-19T19:19:56;13.40;99.90
33825;DHT22;20127;48.962;8.342;2023-11-19T19:22:58;13.40;99.90
33825;DHT22;20127;48.962;8.342;2023-11-19T19:25:59;13.40;99.90
33825;DHT22;20127;48.962;8.342;2023-11-19T19:29:01;13.40;99.90
33825;DHT22;20127;48.962;8.342;2023-11-19T19:32:06;13.40;99.90
33825;DHT22;20127;48.962;8.342;2023-11-19T19:35:08;13.40;99.90
33825;DHT22;20127;48.962;8.342;2023-11-19T19:38:10;13.30;99.90
33825;DHT22;20127;48.962;8.342;2023-11-19T19:41:11;13.30;99.90
33825;DHT22;20127;48.962;8.342;2023-11-19T19:44:14;13.30;99.90
33825;DHT22;20127;48.962;8.342;2023-11-19T19:47:17;13.20;99.90
33825;DHT22;20127;48.962;8.342;2023-11-19T19:50:19;13.10;99.90
33825;DHT22;20127;48.962;8.342;2023-11-19T19:53:21;13.00;99.90
33825;DHT22;20127;48.962;8.342;2023-11-19T19:56:22;12.90;99.90
33825;DHT22;20127;48.962;8.342;2023-11-19T19:59:24;12.90;99.90
33825;DHT22;20127;48.962;8.342;2023-11-19T20:02:27;12.80;99.90
33825;DHT22;20127;48.962;8.342;2023-11-19T20:05:29;12.70;99.90
33825;DHT22;20127;48.962;8.342;2023-11-19T20:08:31;12.70;99.90
33825;DHT22;20127;48.962;8.342;2023-11-19T20:11:33;12.70;99.90
33825;DHT22;20127;48.962;8.342;2023-11-19T20:14:34;12.80;99.90
33825;DHT22;20127;48.962;8.342;2023-11-19T20:17:39;12.70;99.90
33825;DHT22;20127;48.962;8.342;2023-11-19T20:20:41;12.70;99.90
33825;DHT22;20127;48.962;8.342;2023-11-19T20:23:43;12.70;99.90
33825;DHT22;20127;48.962;8.342;2023-11-19T20:26:45;12.60;99.90
33825;DHT22;20127;48.962;8.342;2023-11-19T20:29:53;12.60;99.90
33825;DHT22;20127;48.962;8.342;2023-11-19T20:32:56;12.50;99.90
33825;DHT22;20127;48.962;8.342;2023-11-19T20:35:58;12.50;99.90
33825;DHT22;20127;48.962;8.342;2023-11-19T20:39:00;12.50;99.90
33825;DHT22;20127;48.962;8.342;2023-11-19T20:42:01;12.50;99.90
33825;DHT22;20127;48.962;8.342;2023-11-19T20:45:05;12.50;99.90
33825;DHT22;20127;48.962;8.342;2023-11-19T20:48:10;12.40;99.90
33825;DHT22;20127;48.962;8.342;2023-11-19T20:51:12;12.40;99.90
33825;DHT22;20127;48.962;8.342;2023-11-19T20:54:16;12.40;99.90
33825;DHT22;20127;48.962;8.342;2023-11-19T20:57:18;12.40;99.90